Milo, ME

2:35 AM EDT on May 30, 2015 (GMT -0400)
Main St. Milo | | Change Station
CLOSE
Current Station
Personal Weather Station
Location: Milo, ME
Elevation: 300 ft
Nearby Weather Stations

Elev 300 ft 45.25 °N, 68.99 °W | Updated 8 seconds ago

Mostly Cloudy
Mostly Cloudy
58.1 °F
Feels Like 58.1 °F
N
0.4
Wind Variable Wind from SE
Gusts 2.5 mph

Today
High -- | Low -- °F
--% Chance of Precip.
Yesterday
High -- | Low -- °F
Precip. -- in
4:52 AM 8:14 PM
Waxing Gibbous, 88% visible
Pressure 30.18 in
Visibility 10.0 miles
Clouds Clear
Dew Point 58 °F
Humidity 99%
Rainfall 0.00 in
Snow Depth Not available.
UV 0.0 out of 12
Pollen 9.00 out of 12
Air Quality Not available.
Flu Activity Regional
METAR KMLT 300553Z AUTO 00000KT 10SM CLR 16/14 A3017 RMK AO2 SLP218 T01610144 10211 20161 58012

More Conditions Fewer Conditions

Pressure 30.18 in
Visibility 10.0 miles
Clouds Clear
Dew Point 58 °F
Humidity 99%
Rainfall 0.00 in
Snow Depth Not available.
UV 0.0 out of 12
Pollen 9.00 out of 12
Air Quality Not available.
Flu Activity Regional
METAR KMLT 300553Z AUTO 00000KT 10SM CLR 16/14 A3017 RMK AO2 SLP218 T01610144 10211 20161 58012

More Conditions Fewer Conditions

10-Day Weather Forecast

Almanac

Astronomy

May. 30, 2015 Rise Set
Actual Time
Civil Twilight
Nautical Twilight
Astronomical Twilight
Moon
Length of Visible Light
Length of Day
Tomorrow will be .
, % of the Moon is Illuminated

Today's Extremes

State Highs State Lows

Community

WunderPhotos

Upload Photos

1,825,472 photos uploaded!

WunderBlogs® & News

Nearby

Air Quality

  Air Quality AQ Index Pollutant
Not available.

Snow Depth

Station Depth Elevation

Earthquake Activity

City Distance Mag. Time & Date
Minimum magnitude displayed is 2.5.

Coastal Water Temperatures

Place Temperature

Stations

Nearby Weather Stations

Station Location Temp. Windchill Dew Point Humidity Wind Precip. Elev Updated Type